sensor_id;sensor_type;location;lat;lon;timestamp;P1;durP1;ratioP1;P2;durP2;ratioP2
323;SDS011;149;51.094;17.002;2023-01-04T00:01:51;57.10;;;36.85;;
323;SDS011;149;51.094;17.002;2023-01-04T00:04:19;56.20;;;32.90;;
323;SDS011;149;51.094;17.002;2023-01-04T00:06:46;54.97;;;35.15;;
323;SDS011;149;51.094;17.002;2023-01-04T00:09:14;50.42;;;33.03;;
323;SDS011;149;51.094;17.002;2023-01-04T00:11:43;59.38;;;34.30;;
323;SDS011;149;51.094;17.002;2023-01-04T00:14:10;57.08;;;31.77;;
323;SDS011;149;51.094;17.002;2023-01-04T00:16:37;52.92;;;31.33;;
323;SDS011;149;51.094;17.002;2023-01-04T00:19:04;54.47;;;32.55;;
323;SDS011;149;51.094;17.002;2023-01-04T00:21:31;50.47;;;31.55;;
323;SDS011;149;51.094;17.002;2023-01-04T00:24:04;51.65;;;32.63;;
323;SDS011;149;51.094;17.002;2023-01-04T00:26:36;49.70;;;32.00;;
323;SDS011;149;51.094;17.002;2023-01-04T00:29:11;48.58;;;28.80;;
323;SDS011;149;51.094;17.002;2023-01-04T00:31:39;50.85;;;29.73;;
323;SDS011;149;51.094;17.002;2023-01-04T00:34:08;39.67;;;25.58;;
323;SDS011;149;51.094;17.002;2023-01-04T00:36:39;54.10;;;31.55;;
323;SDS011;149;51.094;17.002;2023-01-04T00:39:10;50.00;;;28.73;;
323;SDS011;149;51.094;17.002;2023-01-04T00:41:47;42.42;;;27.92;;
323;SDS011;149;51.094;17.002;2023-01-04T00:44:26;46.40;;;27.60;;
323;SDS011;149;51.094;17.002;2023-01-04T00:46:54;42.75;;;25.58;;
323;SDS011;149;51.094;17.002;2023-01-04T00:49:21;41.50;;;26.40;;
323;SDS011;149;51.094;17.002;2023-01-04T00:51:48;39.83;;;24.65;;
323;SDS011;149;51.094;17.002;2023-01-04T00:54:15;47.15;;;27.60;;
323;SDS011;149;51.094;17.002;2023-01-04T00:56:44;40.90;;;26.35;;
323;SDS011;149;51.094;17.002;2023-01-04T00:59:11;38.97;;;25.27;;
323;SDS011;149;51.094;17.002;2023-01-04T01:01:40;38.75;;;24.35;;
323;SDS011;149;51.094;17.002;2023-01-04T01:04:12;45.42;;;26.75;;
323;SDS011;149;51.094;17.002;2023-01-04T01:06:40;55.13;;;29.23;;
323;SDS011;149;51.094;17.002;2023-01-04T01:09:08;44.72;;;28.13;;
323;SDS011;149;51.094;17.002;2023-01-04T01:11:35;40.58;;;26.05;;
323;SDS011;149;51.094;17.002;2023-01-04T01:14:07;46.72;;;29.52;;
323;SDS011;149;51.094;17.002;2023-01-04T01:16:38;42.38;;;28.65;;
323;SDS011;149;51.094;17.002;2023-01-04T01:19:26;47.95;;;27.00;;
323;SDS011;149;51.094;17.002;2023-01-04T01:21:55;43.13;;;29.13;;
323;SDS011;149;51.094;17.002;2023-01-04T01:24:23;49.25;;;30.40;;
323;SDS011;149;51.094;17.002;2023-01-04T01:26:51;38.60;;;26.27;;
323;SDS011;149;51.094;17.002;2023-01-04T01:29:19;45.20;;;28.55;;
323;SDS011;149;51.094;17.002;2023-01-04T01:31:46;50.40;;;29.45;;
323;SDS011;149;51.094;17.002;2023-01-04T01:34:15;53.83;;;31.13;;
323;SDS011;149;51.094;17.002;2023-01-04T01:36:42;61.25;;;32.22;;
323;SDS011;149;51.094;17.002;2023-01-04T01:39:09;46.05;;;26.48;;
323;SDS011;149;51.094;17.002;2023-01-04T01:41:36;46.83;;;27.20;;
323;SDS011;149;51.094;17.002;2023-01-04T01:44:05;45.67;;;27.55;;
323;SDS011;149;51.094;17.002;2023-01-04T01:46:52;36.58;;;24.88;;
323;SDS011;149;51.094;17.002;2023-01-04T01:51:59;35.92;;;22.10;;
323;SDS011;149;51.094;17.002;2023-01-04T01:54:30;42.72;;;25.25;;
323;SDS011;149;51.094;17.002;2023-01-04T01:57:01;38.78;;;22.05;;
323;SDS011;149;51.094;17.002;2023-01-04T01:59:48;47.70;;;25.13;;
323;SDS011;149;51.094;17.002;2023-01-04T02:02:25;39.30;;;25.48;;
323;SDS011;149;51.094;17.002;2023-01-04T02:04:53;37.60;;;22.90;;
323;SDS011;149;51.094;17.002;2023-01-04T02:07:21;31.30;;;22.73;;
323;SDS011;149;51.094;17.002;2023-01-04T02:09:52;45.30;;;28.80;;
323;SDS011;149;51.094;17.002;2023-01-04T02:12:22;51.22;;;30.52;;
323;SDS011;149;51.094;17.002;2023-01-04T02:14:49;50.78;;;30.58;;
323;SDS011;149;51.094;17.002;2023-01-04T02:26:19;38.20;;;22.02;;
323;SDS011;149;51.094;17.002;2023-01-04T02:32:11;39.80;;;23.52;;
323;SDS011;149;51.094;17.002;2023-01-04T02:34:55;39.15;;;23.25;;
323;SDS011;149;51.094;17.002;2023-01-04T02:37:37;31.05;;;21.17;;
323;SDS011;149;51.094;17.002;2023-01-04T02:40:20;34.60;;;20.60;;
323;SDS011;149;51.094;17.002;2023-01-04T02:43:27;34.45;;;22.30;;
323;SDS011;149;51.094;17.002;2023-01-04T02:46:28;36.05;;;20.80;;
323;SDS011;149;51.094;17.002;2023-01-04T02:49:00;30.58;;;18.80;;
323;SDS011;149;51.094;17.002;2023-01-04T02:51:50;26.27;;;18.88;;
323;SDS011;149;51.094;17.002;2023-01-04T02:54:27;30.60;;;18.48;;
323;SDS011;149;51.094;17.002;2023-01-04T02:57:17;30.10;;;19.42;;
323;SDS011;149;51.094;17.002;2023-01-04T03:03:53;23.13;;;17.60;;
323;SDS011;149;51.094;17.002;2023-01-04T03:07:14;29.42;;;19.23;;
323;SDS011;149;51.094;17.002;2023-01-04T03:09:52;34.35;;;21.17;;
323;SDS011;149;51.094;17.002;2023-01-04T03:12:25;27.73;;;17.95;;
323;SDS011;149;51.094;17.002;2023-01-04T03:15:07;24.40;;;16.20;;
323;SDS011;149;51.094;17.002;2023-01-04T03:17:44;25.02;;;15.38;;
323;SDS011;149;51.094;17.002;2023-01-04T03:22:46;27.95;;;18.40;;
323;SDS011;149;51.094;17.002;2023-01-04T03:25:41;23.70;;;15.90;;
323;SDS011;149;51.094;17.002;2023-01-04T03:28:32;23.25;;;14.70;;
323;SDS011;149;51.094;17.002;2023-01-04T03:41:59;17.40;;;12.77;;
323;SDS011;149;51.094;17.002;2023-01-04T03:45:11;21.83;;;14.00;;
323;SDS011;149;51.094;17.002;2023-01-04T03:48:10;20.23;;;12.50;;
323;SDS011;149;51.094;17.002;2023-01-04T03:53:53;22.83;;;14.15;;
323;SDS011;149;51.094;17.002;2023-01-04T03:56:37;28.50;;;16.65;;
323;SDS011;149;51.094;17.002;2023-01-04T03:59:08;23.52;;;16.02;;
323;SDS011;149;51.094;17.002;2023-01-04T04:01:36;28.27;;;16.33;;
323;SDS011;149;51.094;17.002;2023-01-04T04:04:03;17.67;;;12.95;;
323;SDS011;149;51.094;17.002;2023-01-04T04:09:28;21.23;;;12.25;;
323;SDS011;149;51.094;17.002;2023-01-04T04:12:02;19.92;;;12.75;;
323;SDS011;149;51.094;17.002;2023-01-04T04:14:29;17.02;;;13.15;;
323;SDS011;149;51.094;17.002;2023-01-04T04:19:38;24.42;;;12.52;;
323;SDS011;149;51.094;17.002;2023-01-04T04:22:06;16.20;;;11.00;;
323;SDS011;149;51.094;17.002;2023-01-04T04:24:33;23.63;;;14.43;;
323;SDS011;149;51.094;17.002;2023-01-04T04:27:03;17.70;;;12.65;;
323;SDS011;149;51.094;17.002;2023-01-04T04:29:31;14.73;;;11.90;;
323;SDS011;149;51.094;17.002;2023-01-04T04:31:59;16.25;;;10.52;;
323;SDS011;149;51.094;17.002;2023-01-04T04:34:26;14.80;;;12.30;;
323;SDS011;149;51.094;17.002;2023-01-04T04:36:53;18.52;;;11.77;;
323;SDS011;149;51.094;17.002;2023-01-04T04:39:20;19.05;;;12.35;;
323;SDS011;149;51.094;17.002;2023-01-04T04:41:47;19.02;;;11.60;;
323;SDS011;149;51.094;17.002;2023-01-04T04:44:15;17.58;;;12.95;;
323;SDS011;149;51.094;17.002;2023-01-04T04:46:45;18.95;;;13.05;;
323;SDS011;149;51.094;17.002;2023-01-04T04:49:13;19.98;;;12.95;;
323;SDS011;149;51.094;17.002;2023-01-04T04:51:41;18.42;;;12.48;;
323;SDS011;149;51.094;17.002;2023-01-04T04:54:09;15.95;;;11.77;;
323;SDS011;149;51.094;17.002;2023-01-04T04:56:39;22.30;;;14.30;;
323;SDS011;149;51.094;17.002;2023-01-04T04:59:06;18.42;;;12.68;;
323;SDS011;149;51.094;17.002;2023-01-04T05:01:33;20.80;;;12.82;;
323;SDS011;149;51.094;17.002;2023-01-04T05:04:00;24.60;;;13.15;;
323;SDS011;149;51.094;17.002;2023-01-04T05:06:29;19.30;;;14.15;;
323;SDS011;149;51.094;17.002;2023-01-04T05:08:56;20.35;;;14.35;;
323;SDS011;149;51.094;17.002;2023-01-04T05:11:23;24.30;;;13.38;;
323;SDS011;149;51.094;17.002;2023-01-04T05:14:09;22.38;;;14.38;;
323;SDS011;149;51.094;17.002;2023-01-04T05:16:36;24.10;;;15.68;;
323;SDS011;149;51.094;17.002;2023-01-04T05:19:03;20.70;;;13.60;;
323;SDS011;149;51.094;17.002;2023-01-04T05:21:30;21.80;;;15.18;;
323;SDS011;149;51.094;17.002;2023-01-04T05:23:57;21.15;;;16.17;;
323;SDS011;149;51.094;17.002;2023-01-04T05:26:24;23.55;;;16.45;;
323;SDS011;149;51.094;17.002;2023-01-04T05:28:50;20.52;;;14.75;;
323;SDS011;149;51.094;17.002;2023-01-04T05:31:19;32.42;;;15.30;;
323;SDS011;149;51.094;17.002;2023-01-04T05:33:47;24.25;;;16.23;;
323;SDS011;149;51.094;17.002;2023-01-04T05:36:14;25.10;;;17.02;;
323;SDS011;149;51.094;17.002;2023-01-04T05:38:41;29.63;;;17.00;;
323;SDS011;149;51.094;17.002;2023-01-04T05:41:08;25.58;;;15.38;;
323;SDS011;149;51.094;17.002;2023-01-04T05:43:55;27.13;;;16.83;;
323;SDS011;149;51.094;17.002;2023-01-04T05:46:22;29.75;;;17.23;;
323;SDS011;149;51.094;17.002;2023-01-04T05:48:49;28.38;;;16.88;;
323;SDS011;149;51.094;17.002;2023-01-04T05:51:18;25.52;;;18.80;;
323;SDS011;149;51.094;17.002;2023-01-04T05:53:44;34.78;;;19.05;;
323;SDS011;149;51.094;17.002;2023-01-04T05:56:11;27.80;;;19.33;;
323;SDS011;149;51.094;17.002;2023-01-04T05:58:38;31.42;;;19.50;;
323;SDS011;149;51.094;17.002;2023-01-04T06:01:05;26.38;;;18.52;;
323;SDS011;149;51.094;17.002;2023-01-04T06:03:33;24.02;;;18.83;;
323;SDS011;149;51.094;17.002;2023-01-04T06:06:00;30.52;;;19.45;;
323;SDS011;149;51.094;17.002;2023-01-04T06:08:27;31.63;;;19.88;;
323;SDS011;149;51.094;17.002;2023-01-04T06:10:54;31.02;;;19.70;;
323;SDS011;149;51.094;17.002;2023-01-04T06:13:23;26.27;;;17.90;;
323;SDS011;149;51.094;17.002;2023-01-04T06:15:50;24.90;;;18.42;;
323;SDS011;149;51.094;17.002;2023-01-04T06:18:17;31.77;;;19.75;;
323;SDS011;149;51.094;17.002;2023-01-04T06:20:44;26.05;;;17.67;;
323;SDS011;149;51.094;17.002;2023-01-04T06:23:11;26.85;;;18.38;;
323;SDS011;149;51.094;17.002;2023-01-04T06:25:40;29.30;;;19.48;;
323;SDS011;149;51.094;17.002;2023-01-04T06:28:07;22.80;;;17.60;;
323;SDS011;149;51.094;17.002;2023-01-04T06:30:35;30.92;;;19.50;;
323;SDS011;149;51.094;17.002;2023-01-04T06:33:02;32.17;;;21.73;;
323;SDS011;149;51.094;17.002;2023-01-04T06:35:30;34.15;;;19.38;;
323;SDS011;149;51.094;17.002;2023-01-04T06:37:57;22.27;;;19.08;;
323;SDS011;149;51.094;17.002;2023-01-04T06:40:24;29.77;;;19.23;;
323;SDS011;149;51.094;17.002;2023-01-04T06:42:52;28.80;;;18.25;;
323;SDS011;149;51.094;17.002;2023-01-04T06:45:19;23.77;;;16.40;;
323;SDS011;149;51.094;17.002;2023-01-04T06:47:46;29.08;;;18.42;;
323;SDS011;149;51.094;17.002;2023-01-04T06:50:13;28.20;;;18.75;;
323;SDS011;149;51.094;17.002;2023-01-04T06:52:40;23.08;;;16.35;;
323;SDS011;149;51.094;17.002;2023-01-04T06:55:08;32.08;;;19.60;;
323;SDS011;149;51.094;17.002;2023-01-04T06:57:36;25.33;;;16.63;;
323;SDS011;149;51.094;17.002;2023-01-04T07:00:04;24.45;;;16.17;;
323;SDS011;149;51.094;17.002;2023-01-04T07:02:33;25.00;;;19.20;;
323;SDS011;149;51.094;17.002;2023-01-04T07:05:02;26.50;;;18.88;;
323;SDS011;149;51.094;17.002;2023-01-04T07:07:32;23.40;;;16.85;;
323;SDS011;149;51.094;17.002;2023-01-04T07:10:04;21.25;;;16.45;;
323;SDS011;149;51.094;17.002;2023-01-04T07:12:35;23.88;;;17.25;;
323;SDS011;149;51.094;17.002;2023-01-04T07:15:04;26.77;;;18.25;;
323;SDS011;149;51.094;17.002;2023-01-04T07:17:51;23.10;;;16.10;;
323;SDS011;149;51.094;17.002;2023-01-04T07:20:20;24.17;;;17.17;;
323;SDS011;149;51.094;17.002;2023-01-04T07:22:49;30.05;;;18.08;;
323;SDS011;149;51.094;17.002;2023-01-04T07:25:19;27.50;;;18.13;;
323;SDS011;149;51.094;17.002;2023-01-04T07:27:49;23.63;;;17.83;;
323;SDS011;149;51.094;17.002;2023-01-04T07:30:22;28.25;;;19.40;;
323;SDS011;149;51.094;17.002;2023-01-04T07:32:50;22.27;;;16.27;;
323;SDS011;149;51.094;17.002;2023-01-04T07:35:18;23.60;;;17.08;;
323;SDS011;149;51.094;17.002;2023-01-04T07:37:45;23.92;;;15.88;;
323;SDS011;149;51.094;17.002;2023-01-04T07:40:22;20.15;;;16.10;;
323;SDS011;149;51.094;17.002;2023-01-04T07:42:53;20.00;;;15.52;;
323;SDS011;149;51.094;17.002;2023-01-04T07:45:23;20.23;;;15.13;;
323;SDS011;149;51.094;17.002;2023-01-04T07:47:50;20.00;;;13.10;;
323;SDS011;149;51.094;17.002;2023-01-04T07:50:17;17.23;;;13.52;;
323;SDS011;149;51.094;17.002;2023-01-04T07:52:44;15.40;;;11.75;;
323;SDS011;149;51.094;17.002;2023-01-04T07:55:11;18.58;;;12.23;;
323;SDS011;149;51.094;17.002;2023-01-04T07:57:38;22.35;;;14.60;;
323;SDS011;149;51.094;17.002;2023-01-04T08:00:05;16.75;;;12.65;;
323;SDS011;149;51.094;17.002;2023-01-04T08:02:33;17.80;;;11.55;;
323;SDS011;149;51.094;17.002;2023-01-04T08:05:00;18.27;;;12.30;;
323;SDS011;149;51.094;17.002;2023-01-04T08:07:28;19.05;;;14.50;;
323;SDS011;149;51.094;17.002;2023-01-04T08:09:55;18.10;;;12.32;;
323;SDS011;149;51.094;17.002;2023-01-04T08:12:22;24.95;;;17.13;;
323;SDS011;149;51.094;17.002;2023-01-04T08:14:49;13.80;;;11.55;;
323;SDS011;149;51.094;17.002;2023-01-04T08:17:16;13.80;;;10.65;;
323;SDS011;149;51.094;17.002;2023-01-04T08:19:44;17.45;;;12.65;;
323;SDS011;149;51.094;17.002;2023-01-04T08:22:12;19.77;;;11.80;;
323;SDS011;149;51.094;17.002;2023-01-04T08:24:40;14.45;;;10.15;;
323;SDS011;149;51.094;17.002;2023-01-04T08:27:07;16.67;;;12.73;;
323;SDS011;149;51.094;17.002;2023-01-04T08:29:36;14.10;;;10.88;;
323;SDS011;149;51.094;17.002;2023-01-04T08:32:03;12.95;;;9.90;;
323;SDS011;149;51.094;17.002;2023-01-04T08:34:31;17.85;;;11.23;;
323;SDS011;149;51.094;17.002;2023-01-04T08:36:58;15.30;;;11.75;;
323;SDS011;149;51.094;17.002;2023-01-04T08:39:25;14.90;;;11.23;;
323;SDS011;149;51.094;17.002;2023-01-04T08:41:54;12.57;;;9.45;;
323;SDS011;149;51.094;17.002;2023-01-04T08:44:26;12.13;;;9.13;;
323;SDS011;149;51.094;17.002;2023-01-04T08:46:53;11.45;;;9.50;;
323;SDS011;149;51.094;17.002;2023-01-04T08:49:21;12.35;;;9.95;;
323;SDS011;149;51.094;17.002;2023-01-04T08:51:48;11.52;;;8.10;;
323;SDS011;149;51.094;17.002;2023-01-04T08:54:18;11.65;;;9.02;;
323;SDS011;149;51.094;17.002;2023-01-04T08:56:48;11.43;;;9.57;;
323;SDS011;149;51.094;17.002;2023-01-04T08:59:15;16.55;;;9.18;;
323;SDS011;149;51.094;17.002;2023-01-04T09:01:42;8.27;;;7.40;;
323;SDS011;149;51.094;17.002;2023-01-04T09:04:09;11.98;;;7.90;;
323;SDS011;149;51.094;17.002;2023-01-04T09:06:37;11.40;;;8.23;;
323;SDS011;149;51.094;17.002;2023-01-04T09:09:04;14.85;;;7.70;;
323;SDS011;149;51.094;17.002;2023-01-04T09:11:36;10.07;;;7.93;;
323;SDS011;149;51.094;17.002;2023-01-04T09:14:07;10.48;;;8.07;;
323;SDS011;149;51.094;17.002;2023-01-04T09:16:36;14.23;;;8.80;;
323;SDS011;149;51.094;17.002;2023-01-04T09:19:03;10.70;;;8.65;;
323;SDS011;149;51.094;17.002;2023-01-04T09:21:33;15.85;;;8.38;;
323;SDS011;149;51.094;17.002;2023-01-04T09:24:00;12.38;;;8.80;;
323;SDS011;149;51.094;17.002;2023-01-04T09:26:27;11.98;;;6.85;;
323;SDS011;149;51.094;17.002;2023-01-04T09:28:55;7.72;;;6.60;;
323;SDS011;149;51.094;17.002;2023-01-04T09:31:23;10.07;;;6.32;;
323;SDS011;149;51.094;17.002;2023-01-04T09:33:51;9.95;;;5.70;;
323;SDS011;149;51.094;17.002;2023-01-04T09:36:39;8.02;;;6.35;;
323;SDS011;149;51.094;17.002;2023-01-04T09:39:07;11.90;;;5.85;;
323;SDS011;149;51.094;17.002;2023-01-04T09:42:31;6.15;;;5.40;;
323;SDS011;149;51.094;17.002;2023-01-04T09:44:43;10.43;;;5.03;;
323;SDS011;149;51.094;17.002;2023-01-04T09:47:48;5.25;;;4.65;;
323;SDS011;149;51.094;17.002;2023-01-04T09:50:23;9.10;;;4.97;;
323;SDS011;149;51.094;17.002;2023-01-04T09:53:05;7.35;;;5.25;;
323;SDS011;149;51.094;17.002;2023-01-04T09:56:12;6.28;;;5.15;;
323;SDS011;149;51.094;17.002;2023-01-04T09:58:42;6.60;;;5.70;;
323;SDS011;149;51.094;17.002;2023-01-04T10:01:13;7.25;;;5.65;;
323;SDS011;149;51.094;17.002;2023-01-04T10:06:39;7.03;;;5.07;;
323;SDS011;149;51.094;17.002;2023-01-04T10:09:10;5.45;;;4.65;;
323;SDS011;149;51.094;17.002;2023-01-04T10:11:55;6.47;;;4.40;;
323;SDS011;149;51.094;17.002;2023-01-04T10:17:17;7.43;;;6.20;;
323;SDS011;149;51.094;17.002;2023-01-04T10:26:14;8.20;;;5.13;;
323;SDS011;149;51.094;17.002;2023-01-04T10:31:44;3.60;;;3.15;;
323;SDS011;149;51.094;17.002;2023-01-04T10:34:25;5.43;;;3.58;;
323;SDS011;149;51.094;17.002;2023-01-04T10:36:56;5.20;;;3.90;;
323;SDS011;149;51.094;17.002;2023-01-04T10:39:45;4.25;;;3.28;;
323;SDS011;149;51.094;17.002;2023-01-04T10:48:06;7.68;;;3.40;;
323;SDS011;149;51.094;17.002;2023-01-04T10:50:43;6.45;;;3.58;;
323;SDS011;149;51.094;17.002;2023-01-04T10:53:17;4.45;;;3.72;;
323;SDS011;149;51.094;17.002;2023-01-04T10:55:52;2.88;;;2.47;;
323;SDS011;149;51.094;17.002;2023-01-04T11:01:17;5.68;;;2.00;;
323;SDS011;149;51.094;17.002;2023-01-04T11:04:08;7.53;;;3.20;;
323;SDS011;149;51.094;17.002;2023-01-04T11:06:55;6.18;;;2.33;;
323;SDS011;149;51.094;17.002;2023-01-04T11:09:38;8.68;;;2.45;;
323;SDS011;149;51.094;17.002;2023-01-04T11:12:15;2.20;;;1.92;;
323;SDS011;149;51.094;17.002;2023-01-04T11:14:46;4.70;;;2.65;;
323;SDS011;149;51.094;17.002;2023-01-04T11:17:15;3.95;;;3.00;;
323;SDS011;149;51.094;17.002;2023-01-04T11:19:43;4.03;;;2.33;;
323;SDS011;149;51.094;17.002;2023-01-04T11:22:13;6.35;;;3.30;;
323;SDS011;149;51.094;17.002;2023-01-04T11:24:47;3.95;;;3.00;;
323;SDS011;149;51.094;17.002;2023-01-04T11:27:42;2.15;;;1.95;;
323;SDS011;149;51.094;17.002;2023-01-04T11:30:17;1.63;;;1.45;;
323;SDS011;149;51.094;17.002;2023-01-04T11:32:54;1.80;;;1.60;;
323;SDS011;149;51.094;17.002;2023-01-04T11:38:27;2.75;;;1.85;;
323;SDS011;149;51.094;17.002;2023-01-04T11:41:16;15.07;;;2.15;;
323;SDS011;149;51.094;17.002;2023-01-04T11:43:58;2.72;;;1.17;;
323;SDS011;149;51.094;17.002;2023-01-04T11:46:27;4.75;;;1.70;;
323;SDS011;149;51.094;17.002;2023-01-04T11:48:56;5.70;;;1.80;;
323;SDS011;149;51.094;17.002;2023-01-04T11:53:58;2.45;;;1.92;;
323;SDS011;149;51.094;17.002;2023-01-04T11:56:31;3.08;;;1.55;;
323;SDS011;149;51.094;17.002;2023-01-04T12:01:39;2.78;;;1.75;;
323;SDS011;149;51.094;17.002;2023-01-04T12:04:30;1.77;;;1.63;;
323;SDS011;149;51.094;17.002;2023-01-04T12:07:19;4.05;;;2.35;;
323;SDS011;149;51.094;17.002;2023-01-04T12:10:19;2.60;;;1.70;;
323;SDS011;149;51.094;17.002;2023-01-04T12:12:48;2.50;;;1.85;;
323;SDS011;149;51.094;17.002;2023-01-04T12:15:16;5.68;;;2.75;;
323;SDS011;149;51.094;17.002;2023-01-04T12:17:58;3.08;;;1.70;;
323;SDS011;149;51.094;17.002;2023-01-04T12:20:31;2.40;;;1.63;;
323;SDS011;149;51.094;17.002;2023-01-04T12:22:58;2.60;;;1.90;;
323;SDS011;149;51.094;17.002;2023-01-04T12:25:42;2.72;;;2.00;;
323;SDS011;149;51.094;17.002;2023-01-04T12:28:28;2.80;;;2.05;;
323;SDS011;149;51.094;17.002;2023-01-04T12:33:51;3.08;;;2.53;;
323;SDS011;149;51.094;17.002;2023-01-04T12:39:24;5.35;;;1.70;;
323;SDS011;149;51.094;17.002;2023-01-04T12:50:14;1.52;;;1.40;;
323;SDS011;149;51.094;17.002;2023-01-04T13:04:25;3.35;;;2.50;;
323;SDS011;149;51.094;17.002;2023-01-04T13:07:09;2.33;;;1.85;;
323;SDS011;149;51.094;17.002;2023-01-04T13:09:47;3.72;;;2.63;;
323;SDS011;149;51.094;17.002;2023-01-04T13:12:20;2.00;;;1.75;;
323;SDS011;149;51.094;17.002;2023-01-04T13:15:12;3.20;;;1.88;;
323;SDS011;149;51.094;17.002;2023-01-04T13:17:47;3.10;;;2.35;;
323;SDS011;149;51.094;17.002;2023-01-04T13:20:16;1.88;;;1.75;;
323;SDS011;149;51.094;17.002;2023-01-04T13:22:52;6.43;;;2.63;;
323;SDS011;149;51.094;17.002;2023-01-04T13:25:26;2.13;;;1.92;;
323;SDS011;149;51.094;17.002;2023-01-04T13:27:59;4.10;;;2.63;;
323;SDS011;149;51.094;17.002;2023-01-04T13:33:06;4.22;;;2.78;;
323;SDS011;149;51.094;17.002;2023-01-04T13:36:00;2.38;;;2.17;;
323;SDS011;149;51.094;17.002;2023-01-04T13:38:36;3.67;;;2.72;;
323;SDS011;149;51.094;17.002;2023-01-04T13:41:18;3.92;;;2.38;;
323;SDS011;149;51.094;17.002;2023-01-04T13:44:03;4.05;;;2.70;;
323;SDS011;149;51.094;17.002;2023-01-04T13:46:40;3.47;;;2.75;;
323;SDS011;149;51.094;17.002;2023-01-04T13:49:09;3.63;;;2.53;;
323;SDS011;149;51.094;17.002;2023-01-04T13:51:40;4.15;;;2.95;;
323;SDS011;149;51.094;17.002;2023-01-04T13:54:18;5.43;;;2.70;;
323;SDS011;149;51.094;17.002;2023-01-04T13:57:06;3.83;;;2.70;;
323;SDS011;149;51.094;17.002;2023-01-04T13:59:35;3.95;;;2.67;;
323;SDS011;149;51.094;17.002;2023-01-04T14:02:12;7.10;;;4.22;;
323;SDS011;149;51.094;17.002;2023-01-04T14:04:49;3.80;;;2.97;;
323;SDS011;149;51.094;17.002;2023-01-04T14:07:20;3.25;;;2.95;;
323;SDS011;149;51.094;17.002;2023-01-04T14:09:50;5.40;;;3.35;;
323;SDS011;149;51.094;17.002;2023-01-04T14:12:23;8.77;;;3.78;;
323;SDS011;149;51.094;17.002;2023-01-04T14:15:13;4.38;;;3.70;;
323;SDS011;149;51.094;17.002;2023-01-04T14:18:29;3.25;;;2.40;;
323;SDS011;149;51.094;17.002;2023-01-04T14:20:59;2.60;;;2.20;;
323;SDS011;149;51.094;17.002;2023-01-04T14:23:39;3.08;;;2.30;;
323;SDS011;149;51.094;17.002;2023-01-04T14:26:06;5.00;;;2.78;;
323;SDS011;149;51.094;17.002;2023-01-04T14:28:34;3.00;;;2.72;;
323;SDS011;149;51.094;17.002;2023-01-04T14:31:12;5.68;;;3.47;;
323;SDS011;149;51.094;17.002;2023-01-04T14:33:45;2.80;;;2.55;;
323;SDS011;149;51.094;17.002;2023-01-04T14:36:17;3.47;;;3.10;;
323;SDS011;149;51.094;17.002;2023-01-04T14:41:33;4.55;;;2.47;;
323;SDS011;149;51.094;17.002;2023-01-04T14:44:24;3.85;;;3.47;;
323;SDS011;149;51.094;17.002;2023-01-04T14:46:59;3.45;;;2.92;;
323;SDS011;149;51.094;17.002;2023-01-04T14:49:38;4.45;;;3.40;;
323;SDS011;149;51.094;17.002;2023-01-04T14:52:21;5.10;;;3.35;;
323;SDS011;149;51.094;17.002;2023-01-04T14:54:53;5.30;;;3.08;;
323;SDS011;149;51.094;17.002;2023-01-04T14:57:20;4.03;;;3.30;;
323;SDS011;149;51.094;17.002;2023-01-04T14:59:47;4.28;;;3.72;;
323;SDS011;149;51.094;17.002;2023-01-04T15:02:18;5.43;;;3.67;;
323;SDS011;149;51.094;17.002;2023-01-04T15:04:46;5.82;;;4.82;;
323;SDS011;149;51.094;17.002;2023-01-04T15:07:49;4.03;;;3.63;;
323;SDS011;149;51.094;17.002;2023-01-04T15:12:46;10.55;;;4.95;;
323;SDS011;149;51.094;17.002;2023-01-04T15:15:16;7.85;;;4.50;;
323;SDS011;149;51.094;17.002;2023-01-04T15:17:44;5.70;;;4.78;;
323;SDS011;149;51.094;17.002;2023-01-04T15:20:15;5.60;;;3.97;;
323;SDS011;149;51.094;17.002;2023-01-04T15:22:44;8.80;;;4.80;;
323;SDS011;149;51.094;17.002;2023-01-04T15:25:15;4.88;;;4.30;;
323;SDS011;149;51.094;17.002;2023-01-04T15:27:42;4.18;;;3.55;;
323;SDS011;149;51.094;17.002;2023-01-04T15:30:10;5.18;;;4.47;;
323;SDS011;149;51.094;17.002;2023-01-04T15:32:38;4.72;;;3.92;;
323;SDS011;149;51.094;17.002;2023-01-04T15:35:07;5.40;;;4.10;;
323;SDS011;149;51.094;17.002;2023-01-04T15:37:42;6.30;;;4.55;;
323;SDS011;149;51.094;17.002;2023-01-04T15:40:13;7.45;;;5.57;;
323;SDS011;149;51.094;17.002;2023-01-04T15:42:42;4.70;;;4.30;;
323;SDS011;149;51.094;17.002;2023-01-04T15:45:25;7.90;;;4.38;;
323;SDS011;149;51.094;17.002;2023-01-04T15:47:53;3.83;;;3.47;;
323;SDS011;149;51.094;17.002;2023-01-04T15:50:22;3.78;;;3.47;;
323;SDS011;149;51.094;17.002;2023-01-04T15:52:50;4.72;;;3.78;;
323;SDS011;149;51.094;17.002;2023-01-04T15:55:19;6.82;;;4.95;;
323;SDS011;149;51.094;17.002;2023-01-04T15:57:46;4.93;;;4.05;;
323;SDS011;149;51.094;17.002;2023-01-04T16:00:15;5.05;;;3.53;;
323;SDS011;149;51.094;17.002;2023-01-04T16:02:44;5.35;;;3.85;;
323;SDS011;149;51.094;17.002;2023-01-04T16:05:11;7.40;;;3.65;;
323;SDS011;149;51.094;17.002;2023-01-04T16:07:38;3.63;;;3.25;;
323;SDS011;149;51.094;17.002;2023-01-04T16:10:07;5.53;;;4.85;;
323;SDS011;149;51.094;17.002;2023-01-04T16:12:37;6.50;;;4.40;;
323;SDS011;149;51.094;17.002;2023-01-04T16:15:15;4.10;;;3.50;;
323;SDS011;149;51.094;17.002;2023-01-04T16:17:45;4.93;;;4.43;;
323;SDS011;149;51.094;17.002;2023-01-04T16:20:15;4.47;;;3.45;;
323;SDS011;149;51.094;17.002;2023-01-04T16:22:45;6.28;;;4.15;;
323;SDS011;149;51.094;17.002;2023-01-04T16:25:26;6.80;;;4.40;;
323;SDS011;149;51.094;17.002;2023-01-04T16:27:54;5.32;;;4.55;;
323;SDS011;149;51.094;17.002;2023-01-04T16:30:25;5.75;;;4.47;;
323;SDS011;149;51.094;17.002;2023-01-04T16:32:59;4.97;;;4.47;;
323;SDS011;149;51.094;17.002;2023-01-04T16:35:27;6.90;;;4.80;;
323;SDS011;149;51.094;17.002;2023-01-04T16:37:54;7.05;;;5.43;;
323;SDS011;149;51.094;17.002;2023-01-04T16:40:28;5.68;;;3.78;;
323;SDS011;149;51.094;17.002;2023-01-04T16:42:57;7.45;;;4.32;;
323;SDS011;149;51.094;17.002;2023-01-04T16:45:26;3.90;;;3.50;;
323;SDS011;149;51.094;17.002;2023-01-04T16:47:53;7.78;;;4.68;;
323;SDS011;149;51.094;17.002;2023-01-04T16:50:22;6.10;;;5.38;;
323;SDS011;149;51.094;17.002;2023-01-04T16:52:51;5.38;;;4.88;;
323;SDS011;149;51.094;17.002;2023-01-04T16:55:18;6.47;;;5.25;;
323;SDS011;149;51.094;17.002;2023-01-04T16:57:49;8.00;;;5.80;;
323;SDS011;149;51.094;17.002;2023-01-04T17:00:16;6.18;;;5.30;;
323;SDS011;149;51.094;17.002;2023-01-04T17:02:44;5.40;;;4.63;;
323;SDS011;149;51.094;17.002;2023-01-04T17:05:11;6.07;;;5.15;;
323;SDS011;149;51.094;17.002;2023-01-04T17:07:38;6.13;;;4.70;;
323;SDS011;149;51.094;17.002;2023-01-04T17:10:06;7.55;;;5.35;;
323;SDS011;149;51.094;17.002;2023-01-04T17:12:38;6.07;;;5.53;;
323;SDS011;149;51.094;17.002;2023-01-04T17:15:15;6.13;;;5.53;;
323;SDS011;149;51.094;17.002;2023-01-04T17:18:03;5.93;;;5.32;;
323;SDS011;149;51.094;17.002;2023-01-04T17:20:33;8.73;;;6.28;;
323;SDS011;149;51.094;17.002;2023-01-04T17:23:45;8.02;;;4.90;;
323;SDS011;149;51.094;17.002;2023-01-04T17:26:24;6.43;;;5.40;;
323;SDS011;149;51.094;17.002;2023-01-04T17:28:58;7.25;;;4.45;;
323;SDS011;149;51.094;17.002;2023-01-04T17:31:33;10.02;;;7.25;;
323;SDS011;149;51.094;17.002;2023-01-04T17:34:06;5.82;;;5.25;;
323;SDS011;149;51.094;17.002;2023-01-04T17:36:43;9.02;;;5.78;;